Terminal Aerodrome Forecast
Issued by NWS Greer, SC

Home | Current Version | Previous Version | Text Only | Print | Product List | Glossary On
Versions: 1 2 3 4 5 6 7 8 9 10 11 12 13 14 15 16 17 18 19 20 21 22 23 24 25 26 27 28 29
000
FTUS42 KGSP 072328
TAFAVL
TAF
KAVL 072328Z 0800/0824 34013KT P6SM SKC
     FM080900 00000KT P6SM SCT140
     FM081100 00000KT P6SM BKN100
     FM081400 25008KT P6SM BKN040 PROB30 0814/0820 4SM -SHSN OVC025
     FM082000 29009G16KT 5SM -SHSN SCT025 BKN040=

USA.gov is the U.S. government's official web portal to all federal, state and local government web resources and services.